sensor_id;sensor_type;location;lat;lon;timestamp;pressure;altitude;pressure_sealevel;temperature;humidity
25420;BME280;13354;48.174;11.566;2023-02-17T00:00:06;96565.34;;;10.67;44.96
25420;BME280;13354;48.174;11.566;2023-02-17T00:02:32;96560.69;;;10.69;44.77
25420;BME280;13354;48.174;11.566;2023-02-17T00:04:57;96560.13;;;10.43;45.35
25420;BME280;13354;48.174;11.566;2023-02-17T00:07:22;96550.38;;;10.35;45.50
25420;BME280;13354;48.174;11.566;2023-02-17T00:09:47;96554.19;;;10.24;45.84
25420;BME280;13354;48.174;11.566;2023-02-17T00:12:13;96559.44;;;10.40;45.52
25420;BME280;13354;48.174;11.566;2023-02-17T00:14:38;96559.47;;;10.24;45.83
25420;BME280;13354;48.174;11.566;2023-02-17T00:17:04;96553.31;;;10.48;45.43
25420;BME280;13354;48.174;11.566;2023-02-17T00:19:29;96553.50;;;10.30;45.64
25420;BME280;13354;48.174;11.566;2023-02-17T00:21:55;96549.22;;;10.29;45.88
25420;BME280;13354;48.174;11.566;2023-02-17T00:24:21;96546.75;;;10.28;46.04
25420;BME280;13354;48.174;11.566;2023-02-17T00:26:47;96548.88;;;10.24;46.13
25420;BME280;13354;48.174;11.566;2023-02-17T00:29:12;96550.22;;;10.20;46.12
25420;BME280;13354;48.174;11.566;2023-02-17T00:31:37;96549.19;;;10.37;45.74
25420;BME280;13354;48.174;11.566;2023-02-17T00:34:02;96553.19;;;10.25;46.10
25420;BME280;13354;48.174;11.566;2023-02-17T00:36:28;96555.66;;;10.27;46.03
25420;BME280;13354;48.174;11.566;2023-02-17T00:38:54;96554.69;;;10.36;45.80
25420;BME280;13354;48.174;11.566;2023-02-17T00:41:20;96557.34;;;10.28;46.15
25420;BME280;13354;48.174;11.566;2023-02-17T00:43:45;96558.16;;;10.12;46.26
25420;BME280;13354;48.174;11.566;2023-02-17T00:46:11;96557.16;;;10.13;46.40
25420;BME280;13354;48.174;11.566;2023-02-17T00:48:36;96552.50;;;10.23;46.20
25420;BME280;13354;48.174;11.566;2023-02-17T00:51:01;96553.00;;;10.19;46.41
25420;BME280;13354;48.174;11.566;2023-02-17T00:53:26;96551.34;;;10.34;46.16
25420;BME280;13354;48.174;11.566;2023-02-17T00:55:52;96552.50;;;10.23;46.21
25420;BME280;13354;48.174;11.566;2023-02-17T00:58:17;96548.38;;;10.37;45.99
25420;BME280;13354;48.174;11.566;2023-02-17T01:00:42;96546.72;;;10.44;45.64
25420;BME280;13354;48.174;11.566;2023-02-17T01:03:07;96552.53;;;10.07;46.56
25420;BME280;13354;48.174;11.566;2023-02-17T01:05:33;96552.00;;;10.20;46.23
25420;BME280;13354;48.174;11.566;2023-02-17T01:07:58;96549.53;;;10.18;46.05
25420;BME280;13354;48.174;11.566;2023-02-17T01:10:23;96551.38;;;10.18;46.21
25420;BME280;13354;48.174;11.566;2023-02-17T01:12:49;96556.69;;;10.26;46.07
25420;BME280;13354;48.174;11.566;2023-02-17T01:15:14;96551.88;;;10.21;46.06
25420;BME280;13354;48.174;11.566;2023-02-17T01:17:39;96548.75;;;10.09;46.11
25420;BME280;13354;48.174;11.566;2023-02-17T01:20:04;96551.38;;;10.01;46.11
25420;BME280;13354;48.174;11.566;2023-02-17T01:22:30;96553.88;;;9.95;46.25
25420;BME280;13354;48.174;11.566;2023-02-17T01:24:55;96552.38;;;9.92;46.46
25420;BME280;13354;48.174;11.566;2023-02-17T01:27:20;96539.16;;;10.00;46.28
25420;BME280;13354;48.174;11.566;2023-02-17T01:29:45;96538.00;;;9.78;46.87
25420;BME280;13354;48.174;11.566;2023-02-17T01:32:11;96534.06;;;9.90;46.48
25420;BME280;13354;48.174;11.566;2023-02-17T01:34:36;96529.06;;;9.96;46.18
25420;BME280;13354;48.174;11.566;2023-02-17T01:37:02;96530.88;;;9.79;46.50
25420;BME280;13354;48.174;11.566;2023-02-17T01:39:27;96531.91;;;9.70;46.76
25420;BME280;13354;48.174;11.566;2023-02-17T01:41:53;96535.69;;;9.67;46.88
25420;BME280;13354;48.174;11.566;2023-02-17T01:44:19;96538.31;;;10.00;45.66
25420;BME280;13354;48.174;11.566;2023-02-17T01:46:46;96539.97;;;9.92;45.93
25420;BME280;13354;48.174;11.566;2023-02-17T01:51:47;96531.69;;;10.04;45.52
25420;BME280;13354;48.174;11.566;2023-02-17T01:54:14;96529.88;;;10.04;45.36
25420;BME280;13354;48.174;11.566;2023-02-17T01:56:42;96531.69;;;10.20;45.12
25420;BME280;13354;48.174;11.566;2023-02-17T01:59:13;96528.56;;;10.00;45.44
25420;BME280;13354;48.174;11.566;2023-02-17T02:01:40;96530.88;;;10.11;45.13
25420;BME280;13354;48.174;11.566;2023-02-17T02:04:06;96528.69;;;10.23;44.72
25420;BME280;13354;48.174;11.566;2023-02-17T02:06:32;96522.94;;;10.03;45.06
25420;BME280;13354;48.174;11.566;2023-02-17T02:09:03;96521.66;;;9.91;45.19
25420;BME280;13354;48.174;11.566;2023-02-17T02:11:29;96528.25;;;10.03;45.13
25420;BME280;13354;48.174;11.566;2023-02-17T02:13:54;96517.19;;;9.91;45.37
25420;BME280;13354;48.174;11.566;2023-02-17T02:16:25;96524.75;;;10.11;45.10
25420;BME280;13354;48.174;11.566;2023-02-17T02:21:31;96523.13;;;10.02;45.27
25420;BME280;13354;48.174;11.566;2023-02-17T02:26:48;96528.41;;;9.93;45.74
25420;BME280;13354;48.174;11.566;2023-02-17T02:29:29;96524.44;;;9.98;45.58
25420;BME280;13354;48.174;11.566;2023-02-17T02:34:47;96537.31;;;10.25;45.22
25420;BME280;13354;48.174;11.566;2023-02-17T02:37:19;96530.03;;;10.19;45.39
25420;BME280;13354;48.174;11.566;2023-02-17T02:39:48;96530.53;;;10.39;45.04
25420;BME280;13354;48.174;11.566;2023-02-17T02:42:19;96537.16;;;10.35;45.24
25420;BME280;13354;48.174;11.566;2023-02-17T02:44:46;96530.34;;;10.40;45.09
25420;BME280;13354;48.174;11.566;2023-02-17T02:49:54;96532.19;;;10.15;45.83
25420;BME280;13354;48.174;11.566;2023-02-17T02:52:25;96526.38;;;10.12;46.23
25420;BME280;13354;48.174;11.566;2023-02-17T02:55:06;96523.59;;;10.13;45.72
25420;BME280;13354;48.174;11.566;2023-02-17T02:57:45;96521.09;;;10.12;46.04
25420;BME280;13354;48.174;11.566;2023-02-17T03:02:42;96516.16;;;10.01;46.34
25420;BME280;13354;48.174;11.566;2023-02-17T03:05:14;96511.34;;;10.29;45.89
25420;BME280;13354;48.174;11.566;2023-02-17T03:07:52;96514.84;;;10.13;46.15
25420;BME280;13354;48.174;11.566;2023-02-17T03:10:19;96512.50;;;10.26;46.09
25420;BME280;13354;48.174;11.566;2023-02-17T03:12:45;96507.03;;;10.36;45.80
25420;BME280;13354;48.174;11.566;2023-02-17T03:15:12;96496.81;;;10.16;46.26
25420;BME280;13354;48.174;11.566;2023-02-17T03:17:39;96491.50;;;10.16;46.32
25420;BME280;13354;48.174;11.566;2023-02-17T03:20:04;96496.78;;;10.25;46.16
25420;BME280;13354;48.174;11.566;2023-02-17T03:22:32;96497.63;;;10.25;46.29
25420;BME280;13354;48.174;11.566;2023-02-17T03:24:59;96495.66;;;10.27;46.15
25420;BME280;13354;48.174;11.566;2023-02-17T03:27:25;96496.00;;;10.00;46.67
25420;BME280;13354;48.174;11.566;2023-02-17T03:29:50;96492.88;;;9.96;46.83
25420;BME280;13354;48.174;11.566;2023-02-17T03:32:16;96486.72;;;10.20;46.40
25420;BME280;13354;48.174;11.566;2023-02-17T03:34:41;96488.69;;;10.18;46.67
25420;BME280;13354;48.174;11.566;2023-02-17T03:37:06;96487.03;;;10.17;46.41
25420;BME280;13354;48.174;11.566;2023-02-17T03:39:31;96486.22;;;10.00;46.77
25420;BME280;13354;48.174;11.566;2023-02-17T03:41:57;96481.78;;;10.09;46.49
25420;BME280;13354;48.174;11.566;2023-02-17T03:44:22;96484.09;;;10.04;46.82
25420;BME280;13354;48.174;11.566;2023-02-17T03:46:47;96480.44;;;10.05;46.61
25420;BME280;13354;48.174;11.566;2023-02-17T03:49:13;96485.09;;;9.95;47.04
25420;BME280;13354;48.174;11.566;2023-02-17T03:51:38;96477.13;;;10.11;46.38
25420;BME280;13354;48.174;11.566;2023-02-17T03:54:04;96475.44;;;10.18;46.17
25420;BME280;13354;48.174;11.566;2023-02-17T03:56:29;96484.22;;;10.27;45.95
25420;BME280;13354;48.174;11.566;2023-02-17T03:58:54;96484.25;;;10.10;46.33
25420;BME280;13354;48.174;11.566;2023-02-17T04:01:20;96479.75;;;10.19;46.19
25420;BME280;13354;48.174;11.566;2023-02-17T04:03:45;96479.78;;;10.03;46.46
25420;BME280;13354;48.174;11.566;2023-02-17T04:06:11;96488.19;;;10.14;46.00
25420;BME280;13354;48.174;11.566;2023-02-17T04:08:36;96477.44;;;10.08;46.17
25420;BME280;13354;48.174;11.566;2023-02-17T04:11:03;96477.28;;;10.18;45.76
25420;BME280;13354;48.174;11.566;2023-02-17T04:13:28;96461.88;;;10.29;45.67
25420;BME280;13354;48.174;11.566;2023-02-17T04:15:54;96474.94;;;10.39;45.51
25420;BME280;13354;48.174;11.566;2023-02-17T04:18:19;96473.09;;;10.39;45.39
25420;BME280;13354;48.174;11.566;2023-02-17T04:20:46;96470.41;;;10.48;45.08
25420;BME280;13354;48.174;11.566;2023-02-17T04:23:12;96462.13;;;10.51;44.82
25420;BME280;13354;48.174;11.566;2023-02-17T04:25:38;96463.47;;;10.47;45.01
25420;BME280;13354;48.174;11.566;2023-02-17T04:28:04;96466.19;;;10.22;45.56
25420;BME280;13354;48.174;11.566;2023-02-17T04:30:29;96466.50;;;10.19;45.59
25420;BME280;13354;48.174;11.566;2023-02-17T04:32:55;96466.44;;;10.52;44.93
25420;BME280;13354;48.174;11.566;2023-02-17T04:35:20;96468.00;;;10.30;45.42
25420;BME280;13354;48.174;11.566;2023-02-17T04:37:45;96469.31;;;10.42;45.05
25420;BME280;13354;48.174;11.566;2023-02-17T04:40:10;96470.47;;;10.39;44.97
25420;BME280;13354;48.174;11.566;2023-02-17T04:42:36;96469.59;;;10.47;44.84
25420;BME280;13354;48.174;11.566;2023-02-17T04:45:02;96458.47;;;10.52;44.65
25420;BME280;13354;48.174;11.566;2023-02-17T04:47:27;96459.72;;;10.33;44.91
25420;BME280;13354;48.174;11.566;2023-02-17T04:49:53;96457.03;;;10.41;44.62
25420;BME280;13354;48.174;11.566;2023-02-17T04:52:18;96456.34;;;10.47;44.73
25420;BME280;13354;48.174;11.566;2023-02-17T04:54:44;96461.59;;;10.55;44.78
25420;BME280;13354;48.174;11.566;2023-02-17T04:57:09;96455.09;;;10.27;45.26
25420;BME280;13354;48.174;11.566;2023-02-17T04:59:34;96459.34;;;10.44;44.73
25420;BME280;13354;48.174;11.566;2023-02-17T05:01:59;96453.09;;;10.37;44.97
25420;BME280;13354;48.174;11.566;2023-02-17T05:04:25;96448.59;;;10.46;44.70
25420;BME280;13354;48.174;11.566;2023-02-17T05:06:50;96448.91;;;10.51;44.48
25420;BME280;13354;48.174;11.566;2023-02-17T05:09:15;96448.59;;;10.46;44.62
25420;BME280;13354;48.174;11.566;2023-02-17T05:11:40;96439.75;;;10.61;44.47
25420;BME280;13354;48.174;11.566;2023-02-17T05:14:06;96442.19;;;10.32;44.93
25420;BME280;13354;48.174;11.566;2023-02-17T05:16:31;96445.16;;;10.37;44.98
25420;BME280;13354;48.174;11.566;2023-02-17T05:18:56;96441.84;;;10.35;45.02
25420;BME280;13354;48.174;11.566;2023-02-17T05:21:22;96442.34;;;10.38;44.91
25420;BME280;13354;48.174;11.566;2023-02-17T05:23:47;96449.13;;;10.33;45.22
25420;BME280;13354;48.174;11.566;2023-02-17T05:26:12;96440.34;;;10.40;44.89
25420;BME280;13354;48.174;11.566;2023-02-17T05:28:37;96444.47;;;10.43;45.05
25420;BME280;13354;48.174;11.566;2023-02-17T05:31:02;96445.09;;;10.45;45.12
25420;BME280;13354;48.174;11.566;2023-02-17T05:33:28;96440.47;;;10.47;45.21
25420;BME280;13354;48.174;11.566;2023-02-17T05:35:53;96436.00;;;10.48;45.21
25420;BME280;13354;48.174;11.566;2023-02-17T05:38:19;96438.69;;;10.39;45.53
25420;BME280;13354;48.174;11.566;2023-02-17T05:40:44;96443.91;;;10.56;45.04
25420;BME280;13354;48.174;11.566;2023-02-17T05:43:09;96443.47;;;10.44;45.32
25420;BME280;13354;48.174;11.566;2023-02-17T05:45:34;96440.28;;;10.57;45.26
25420;BME280;13354;48.174;11.566;2023-02-17T05:47:59;96437.00;;;10.47;45.41
25420;BME280;13354;48.174;11.566;2023-02-17T05:50:25;96426.38;;;10.55;45.23
25420;BME280;13354;48.174;11.566;2023-02-17T05:52:50;96438.06;;;10.69;45.00
25420;BME280;13354;48.174;11.566;2023-02-17T05:55:15;96441.16;;;10.41;45.58
25420;BME280;13354;48.174;11.566;2023-02-17T05:57:40;96438.84;;;10.46;45.59
25420;BME280;13354;48.174;11.566;2023-02-17T06:00:06;96440.53;;;10.39;45.64
25420;BME280;13354;48.174;11.566;2023-02-17T06:02:31;96450.75;;;10.42;45.73
25420;BME280;13354;48.174;11.566;2023-02-17T06:04:56;96450.09;;;10.40;45.97
25420;BME280;13354;48.174;11.566;2023-02-17T06:07:21;96452.75;;;10.40;46.11
25420;BME280;13354;48.174;11.566;2023-02-17T06:09:47;96457.38;;;10.46;45.86
25420;BME280;13354;48.174;11.566;2023-02-17T06:12:12;96443.75;;;10.57;45.70
25420;BME280;13354;48.174;11.566;2023-02-17T06:14:37;96456.69;;;10.44;46.18
25420;BME280;13354;48.174;11.566;2023-02-17T06:17:02;96457.66;;;10.51;46.28
25420;BME280;13354;48.174;11.566;2023-02-17T06:19:28;96463.88;;;10.67;46.03
25420;BME280;13354;48.174;11.566;2023-02-17T06:21:53;96467.91;;;10.54;46.70
25420;BME280;13354;48.174;11.566;2023-02-17T06:24:20;96475.19;;;10.60;47.08
25420;BME280;13354;48.174;11.566;2023-02-17T06:26:45;96475.06;;;10.46;47.93
25420;BME280;13354;48.174;11.566;2023-02-17T06:29:11;96483.31;;;10.51;50.68
25420;BME280;13354;48.174;11.566;2023-02-17T06:31:36;96471.09;;;10.42;51.01
25420;BME280;13354;48.174;11.566;2023-02-17T06:34:01;96469.94;;;10.44;51.54
25420;BME280;13354;48.174;11.566;2023-02-17T06:36:26;96477.72;;;10.37;52.76
25420;BME280;13354;48.174;11.566;2023-02-17T06:38:52;96480.06;;;10.32;54.27
25420;BME280;13354;48.174;11.566;2023-02-17T06:41:17;96483.88;;;10.22;54.30
25420;BME280;13354;48.174;11.566;2023-02-17T06:43:42;96473.81;;;10.17;54.02
25420;BME280;13354;48.174;11.566;2023-02-17T06:46:07;96476.47;;;10.25;54.35
25420;BME280;13354;48.174;11.566;2023-02-17T06:48:33;96467.34;;;10.28;54.33
25420;BME280;13354;48.174;11.566;2023-02-17T06:50:59;96475.59;;;10.33;53.58
25420;BME280;13354;48.174;11.566;2023-02-17T06:53:24;96478.56;;;10.38;53.52
25420;BME280;13354;48.174;11.566;2023-02-17T06:55:49;96472.13;;;10.24;53.46
25420;BME280;13354;48.174;11.566;2023-02-17T06:58:15;96473.97;;;10.32;53.54
25420;BME280;13354;48.174;11.566;2023-02-17T07:00:40;96466.16;;;10.38;52.99
25420;BME280;13354;48.174;11.566;2023-02-17T07:03:05;96463.66;;;10.37;52.76
25420;BME280;13354;48.174;11.566;2023-02-17T07:05:33;96471.47;;;10.30;52.71
25420;BME280;13354;48.174;11.566;2023-02-17T07:07:58;96460.06;;;10.22;52.68
25420;BME280;13354;48.174;11.566;2023-02-17T07:10:24;96469.00;;;10.29;52.73
25420;BME280;13354;48.174;11.566;2023-02-17T07:12:49;96460.16;;;10.45;52.29
25420;BME280;13354;48.174;11.566;2023-02-17T07:15:15;96461.09;;;10.60;52.69
25420;BME280;13354;48.174;11.566;2023-02-17T07:17:40;96467.44;;;10.51;53.29
25420;BME280;13354;48.174;11.566;2023-02-17T07:20:05;96472.69;;;10.59;52.99
25420;BME280;13354;48.174;11.566;2023-02-17T07:22:31;96483.28;;;10.59;52.99
25420;BME280;13354;48.174;11.566;2023-02-17T07:24:56;96477.59;;;10.70;53.15
25420;BME280;13354;48.174;11.566;2023-02-17T07:27:22;96487.91;;;10.65;53.41
25420;BME280;13354;48.174;11.566;2023-02-17T07:29:47;96473.19;;;10.94;53.07
25420;BME280;13354;48.174;11.566;2023-02-17T07:32:12;96479.31;;;10.94;53.25
25420;BME280;13354;48.174;11.566;2023-02-17T07:34:37;96473.56;;;10.82;53.82
25420;BME280;13354;48.174;11.566;2023-02-17T07:37:02;96480.25;;;11.01;53.68
25420;BME280;13354;48.174;11.566;2023-02-17T07:39:28;96469.34;;;10.96;53.84
25420;BME280;13354;48.174;11.566;2023-02-17T07:41:53;96482.44;;;10.89;54.58
25420;BME280;13354;48.174;11.566;2023-02-17T07:44:19;96479.41;;;11.01;54.58
25420;BME280;13354;48.174;11.566;2023-02-17T07:46:44;96472.13;;;11.03;54.52
25420;BME280;13354;48.174;11.566;2023-02-17T07:49:10;96475.19;;;11.15;54.42
25420;BME280;13354;48.174;11.566;2023-02-17T07:51:36;96482.19;;;11.07;54.61
25420;BME280;13354;48.174;11.566;2023-02-17T07:54:01;96476.88;;;11.07;55.05
25420;BME280;13354;48.174;11.566;2023-02-17T07:56:26;96479.25;;;11.25;54.36
25420;BME280;13354;48.174;11.566;2023-02-17T07:58:53;96480.19;;;11.09;54.68
25420;BME280;13354;48.174;11.566;2023-02-17T08:01:22;96485.56;;;11.24;54.21
25420;BME280;13354;48.174;11.566;2023-02-17T08:03:48;96483.28;;;11.21;54.57
25420;BME280;13354;48.174;11.566;2023-02-17T08:06:17;96484.41;;;11.27;54.59
25420;BME280;13354;48.174;11.566;2023-02-17T08:08:43;96473.19;;;11.17;55.33
25420;BME280;13354;48.174;11.566;2023-02-17T08:11:27;96480.09;;;11.26;55.60
25420;BME280;13354;48.174;11.566;2023-02-17T08:14:12;96488.34;;;11.31;55.34
25420;BME280;13354;48.174;11.566;2023-02-17T08:16:37;96487.94;;;11.42;55.16
25420;BME280;13354;48.174;11.566;2023-02-17T08:19:02;96485.56;;;11.24;55.48
25420;BME280;13354;48.174;11.566;2023-02-17T08:21:28;96485.22;;;11.27;55.59
25420;BME280;13354;48.174;11.566;2023-02-17T08:23:53;96485.69;;;11.31;55.49
25420;BME280;13354;48.174;11.566;2023-02-17T08:26:19;96486.81;;;11.36;55.55
25420;BME280;13354;48.174;11.566;2023-02-17T08:28:44;96481.09;;;11.48;55.77
25420;BME280;13354;48.174;11.566;2023-02-17T08:31:17;96495.13;;;11.56;56.21
25420;BME280;13354;48.174;11.566;2023-02-17T08:33:44;96494.75;;;11.59;56.37
25420;BME280;13354;48.174;11.566;2023-02-17T08:36:09;96489.34;;;11.53;59.29
25420;BME280;13354;48.174;11.566;2023-02-17T08:38:35;96484.28;;;11.20;60.22
25420;BME280;13354;48.174;11.566;2023-02-17T08:41:00;96486.59;;;11.15;60.42
25420;BME280;13354;48.174;11.566;2023-02-17T08:43:25;96485.91;;;11.21;59.39
25420;BME280;13354;48.174;11.566;2023-02-17T08:45:51;96487.34;;;11.09;59.77
25420;BME280;13354;48.174;11.566;2023-02-17T08:48:16;96495.34;;;11.24;59.11
25420;BME280;13354;48.174;11.566;2023-02-17T08:50:42;96491.50;;;11.26;57.54
25420;BME280;13354;48.174;11.566;2023-02-17T08:53:07;96494.88;;;11.20;58.02
25420;BME280;13354;48.174;11.566;2023-02-17T08:55:33;96513.19;;;11.30;57.57
25420;BME280;13354;48.174;11.566;2023-02-17T08:57:59;96499.66;;;11.25;59.14
25420;BME280;13354;48.174;11.566;2023-02-17T09:00:24;96508.72;;;11.30;59.24
25420;BME280;13354;48.174;11.566;2023-02-17T09:02:49;96521.06;;;11.15;60.59
25420;BME280;13354;48.174;11.566;2023-02-17T09:05:14;96509.00;;;11.12;61.07
25420;BME280;13354;48.174;11.566;2023-02-17T09:07:39;96501.00;;;11.21;60.89
25420;BME280;13354;48.174;11.566;2023-02-17T09:10:06;96522.06;;;11.14;60.06
25420;BME280;13354;48.174;11.566;2023-02-17T09:12:31;96520.09;;;11.08;61.44
25420;BME280;13354;48.174;11.566;2023-02-17T09:14:57;96526.00;;;10.95;61.60
25420;BME280;13354;48.174;11.566;2023-02-17T09:17:22;96519.81;;;11.03;62.12
25420;BME280;13354;48.174;11.566;2023-02-17T09:19:47;96523.00;;;10.98;62.09
25420;BME280;13354;48.174;11.566;2023-02-17T09:22:13;96518.53;;;10.99;62.58
25420;BME280;13354;48.174;11.566;2023-02-17T09:24:39;96506.84;;;11.08;62.34
25420;BME280;13354;48.174;11.566;2023-02-17T09:27:04;96518.66;;;11.05;62.17
25420;BME280;13354;48.174;11.566;2023-02-17T09:29:29;96528.25;;;11.06;62.82
25420;BME280;13354;48.174;11.566;2023-02-17T09:31:54;96516.44;;;11.17;62.30
25420;BME280;13354;48.174;11.566;2023-02-17T09:34:20;96522.34;;;11.27;61.48
25420;BME280;13354;48.174;11.566;2023-02-17T09:36:45;96501.94;;;11.28;60.98
25420;BME280;13354;48.174;11.566;2023-02-17T09:39:10;96506.72;;;11.32;60.90
25420;BME280;13354;48.174;11.566;2023-02-17T09:41:40;96500.19;;;11.43;60.67
25420;BME280;13354;48.174;11.566;2023-02-17T09:44:16;96509.66;;;11.37;60.22
25420;BME280;13354;48.174;11.566;2023-02-17T09:46:44;96512.91;;;11.48;60.39
25420;BME280;13354;48.174;11.566;2023-02-17T09:49:13;96516.78;;;11.37;60.25
25420;BME280;13354;48.174;11.566;2023-02-17T09:51:59;96515.25;;;11.66;59.52
25420;BME280;13354;48.174;11.566;2023-02-17T09:56:51;96522.31;;;11.73;59.50
25420;BME280;13354;48.174;11.566;2023-02-17T09:59:19;96511.44;;;11.68;59.38
25420;BME280;13354;48.174;11.566;2023-02-17T10:01:46;96513.41;;;11.89;58.85
25420;BME280;13354;48.174;11.566;2023-02-17T10:06:51;96531.22;;;12.03;58.36
25420;BME280;13354;48.174;11.566;2023-02-17T10:14:10;96524.50;;;12.60;56.92
25420;BME280;13354;48.174;11.566;2023-02-17T10:16:39;96494.94;;;12.99;56.00
25420;BME280;13354;48.174;11.566;2023-02-17T10:19:10;96514.91;;;12.95;56.21
25420;BME280;13354;48.174;11.566;2023-02-17T10:21:41;96513.28;;;12.94;55.86
25420;BME280;13354;48.174;11.566;2023-02-17T10:24:08;96511.66;;;12.93;55.61
25420;BME280;13354;48.174;11.566;2023-02-17T10:26:42;96504.41;;;12.72;56.04
25420;BME280;13354;48.174;11.566;2023-02-17T10:29:19;96504.88;;;12.76;56.30
25420;BME280;13354;48.174;11.566;2023-02-17T10:34:41;96519.41;;;12.95;55.68
25420;BME280;13354;48.174;11.566;2023-02-17T10:42:01;96487.78;;;13.58;53.80
25420;BME280;13354;48.174;11.566;2023-02-17T10:44:27;96487.09;;;13.92;52.77
25420;BME280;13354;48.174;11.566;2023-02-17T10:46:54;96492.91;;;13.81;52.62
25420;BME280;13354;48.174;11.566;2023-02-17T10:49:30;96488.38;;;13.74;52.81
25420;BME280;13354;48.174;11.566;2023-02-17T10:52:00;96491.91;;;13.82;52.21
25420;BME280;13354;48.174;11.566;2023-02-17T10:54:31;96501.28;;;14.06;51.30
25420;BME280;13354;48.174;11.566;2023-02-17T10:56:58;96509.34;;;14.40;50.76
25420;BME280;13354;48.174;11.566;2023-02-17T10:59:32;96492.03;;;14.58;50.28
25420;BME280;13354;48.174;11.566;2023-02-17T11:02:00;96500.31;;;14.76;49.95
25420;BME280;13354;48.174;11.566;2023-02-17T11:04:39;96483.81;;;15.01;49.22
25420;BME280;13354;48.174;11.566;2023-02-17T11:07:07;96473.09;;;14.87;49.27
25420;BME280;13354;48.174;11.566;2023-02-17T11:09:38;96492.03;;;14.58;49.52
25420;BME280;13354;48.174;11.566;2023-02-17T11:12:11;96478.63;;;14.44;50.05
25420;BME280;13354;48.174;11.566;2023-02-17T11:14:42;96462.88;;;14.15;50.37
25420;BME280;13354;48.174;11.566;2023-02-17T11:17:15;96474.81;;;14.25;50.24
25420;BME280;13354;48.174;11.566;2023-02-17T11:19:52;96469.09;;;14.29;50.50
25420;BME280;13354;48.174;11.566;2023-02-17T11:22:31;96478.91;;;14.21;50.60
25420;BME280;13354;48.174;11.566;2023-02-17T11:25:07;96462.81;;;14.36;50.14
25420;BME280;13354;48.174;11.566;2023-02-17T11:27:48;96464.81;;;14.34;50.57
25420;BME280;13354;48.174;11.566;2023-02-17T11:30:14;96474.41;;;14.57;50.27
25420;BME280;13354;48.174;11.566;2023-02-17T11:32:40;96461.00;;;14.85;49.55
25420;BME280;13354;48.174;11.566;2023-02-17T11:35:16;96452.97;;;14.78;49.77
25420;BME280;13354;48.174;11.566;2023-02-17T11:37:44;96441.38;;;15.12;49.09
25420;BME280;13354;48.174;11.566;2023-02-17T11:40:22;96443.66;;;15.22;49.02
25420;BME280;13354;48.174;11.566;2023-02-17T11:42:54;96455.09;;;14.96;49.35
25420;BME280;13354;48.174;11.566;2023-02-17T11:45:20;96440.03;;;14.75;50.06
25420;BME280;13354;48.174;11.566;2023-02-17T11:47:48;96442.03;;;14.60;50.36
25420;BME280;13354;48.174;11.566;2023-02-17T11:57:54;96440.03;;;14.34;51.45
25420;BME280;13354;48.174;11.566;2023-02-17T12:03:03;96426.50;;;14.29;51.16
25420;BME280;13354;48.174;11.566;2023-02-17T12:08:02;96414.56;;;13.90;52.08
25420;BME280;13354;48.174;11.566;2023-02-17T12:10:37;96421.03;;;14.09;51.88
25420;BME280;13354;48.174;11.566;2023-02-17T12:20:57;96446.72;;;14.51;51.10
25420;BME280;13354;48.174;11.566;2023-02-17T12:26:10;96420.53;;;14.26;51.69
25420;BME280;13354;48.174;11.566;2023-02-17T12:28:44;96420.41;;;14.07;52.43
25420;BME280;13354;48.174;11.566;2023-02-17T12:33:49;96417.88;;;13.92;53.00
25420;BME280;13354;48.174;11.566;2023-02-17T12:36:19;96412.72;;;13.90;53.19
25420;BME280;13354;48.174;11.566;2023-02-17T12:38:54;96418.47;;;13.94;53.22
25420;BME280;13354;48.174;11.566;2023-02-17T12:41:22;96435.03;;;13.89;53.38
25420;BME280;13354;48.174;11.566;2023-02-17T12:43:50;96416.13;;;13.77;53.81
25420;BME280;13354;48.174;11.566;2023-02-17T12:46:19;96410.50;;;13.94;53.26
25420;BME280;13354;48.174;11.566;2023-02-17T12:48:54;96413.59;;;13.97;53.17
25420;BME280;13354;48.174;11.566;2023-02-17T12:51:29;96420.31;;;13.93;53.20
25420;BME280;13354;48.174;11.566;2023-02-17T12:53:58;96423.84;;;14.00;53.13
25420;BME280;13354;48.174;11.566;2023-02-17T12:59:04;96421.31;;;13.86;53.52
25420;BME280;13354;48.174;11.566;2023-02-17T13:01:43;96420.66;;;13.56;54.38
25420;BME280;13354;48.174;11.566;2023-02-17T13:04:11;96418.72;;;13.71;54.04
25420;BME280;13354;48.174;11.566;2023-02-17T13:06:40;96421.66;;;13.54;54.82
25420;BME280;13354;48.174;11.566;2023-02-17T13:11:51;96413.16;;;13.66;54.48
25420;BME280;13354;48.174;11.566;2023-02-17T13:16:47;96422.09;;;13.58;54.67
25420;BME280;13354;48.174;11.566;2023-02-17T13:19:13;96429.31;;;13.64;54.73
25420;BME280;13354;48.174;11.566;2023-02-17T13:21:50;96418.97;;;13.76;54.81
25420;BME280;13354;48.174;11.566;2023-02-17T13:24:29;96418.91;;;13.69;55.42
25420;BME280;13354;48.174;11.566;2023-02-17T13:26:55;96420.84;;;13.54;56.17
25420;BME280;13354;48.174;11.566;2023-02-17T13:31:52;96415.28;;;13.49;56.82
25420;BME280;13354;48.174;11.566;2023-02-17T13:36:56;96411.75;;;13.42;57.10
25420;BME280;13354;48.174;11.566;2023-02-17T13:41:49;96411.94;;;13.40;57.28
25420;BME280;13354;48.174;11.566;2023-02-17T13:46:43;96411.69;;;13.35;57.88
25420;BME280;13354;48.174;11.566;2023-02-17T13:49:18;96422.38;;;13.42;57.84
25420;BME280;13354;48.174;11.566;2023-02-17T13:51:44;96421.13;;;13.38;57.88
25420;BME280;13354;48.174;11.566;2023-02-17T13:54:10;96425.75;;;13.14;58.60
25420;BME280;13354;48.174;11.566;2023-02-17T13:56:36;96428.16;;;13.24;58.37
25420;BME280;13354;48.174;11.566;2023-02-17T13:59:05;96401.16;;;13.05;58.79
25420;BME280;13354;48.174;11.566;2023-02-17T14:01:30;96405.28;;;13.08;58.81
25420;BME280;13354;48.174;11.566;2023-02-17T14:03:56;96401.78;;;13.29;58.22
25420;BME280;13354;48.174;11.566;2023-02-17T14:08:49;96414.22;;;13.22;58.42